Terminal Aerodrome Forecast
Issued by NWS

Home | Current Version | Previous Version | Text Only | Print | Product List | Glossary On
Versions: 1 2 3 4 5 6 7 8 9 10 11 12 13 14 15 16 17 18 19 20 21 22 23 24 25 26 27 28 29 30 31 32
851
FTUS41 KBOX 081740 AAB
TAFACK
TAF AMD
KACK 081740Z 0818/0918 02035G49KT 1/4SM +SN OVC006
     FM082100 02028G45KT 1/2SM SN OVC009
     FM082300 02023G42KT 1SM -SN OVC010
     FM090100 01019G34KT 2SM -SN OVC015
     FM090400 01015G27KT P6SM VCSH OVC010
     FM090900 01011KT P6SM OVC040
     FM091500 03013KT P6SM OVC020
     FM091700 03012G20KT P6SM VCSH OVC020=

USA.gov is the U.S. government's official web portal to all federal, state and local government web resources and services.